Mitra — PBZW — position and weather

sailwx.info

Track history (hours):
 
Tides and Currents Weather Stations Pressure Air Temp Water Temp Dewpoint Dewpoint Depression Visibility Wind Speed Wind Dir Waves Ship Positions

Oceanographic research ship Mitra (Netherlands)

Detailed information on ship capabilities available from University of Delaware's Ocean Information Center.

Last reported at 2018-Jan-23 23:14 UTC. Time now 2018-Feb-23 14:23 UTC.
Position S 24°02' W 046°21'.
Warning: this ship's position is 30 days out of date.

Length 223 m; draft 10.1 m.

Type: Ship (hazmat cat A). MMSI: 244670078.

Date/timePositionNaut miles runAvg speedWind from/ knotsBaromVisibWave heightAir tempDewpointWater temp
2018-Jan-23 23:14S 24°02' W 046°21'2 8.7
2018-Jan-23 23:00S 23°60' W 046°20'3 6.0
2018-Jan-23 22:31S 23°58' W 046°18'0 0.3
2018-Jan-23 21:57S 23°58' W 046°18'0 0.0
2018-Jan-23 21:30S 23°58' W 046°18'0 0.0
2018-Jan-23 20:57S 23°58' W 046°18'0 0.0
2018-Jan-23 20:27S 23°58' W 046°18'0 0.0
2018-Jan-23 20:00S 23°58' W 046°18'0 0.0
2018-Jan-23 19:30S 23°58' W 046°18'0 0.0
2018-Jan-23 19:00S 23°58' W 046°18'0 0.0
2018-Jan-23 18:30S 23°58' W 046°18'0 0.0
2018-Jan-23 18:00S 23°58' W 046°18'0 0.0
2018-Jan-23 17:30S 23°58' W 046°18'0 0.0
2018-Jan-23 17:00S 23°58' W 046°18'0 0.0
2018-Jan-23 16:27S 23°58' W 046°18'0 0.0
2018-Jan-23 16:00S 23°58' W 046°18'0 0.0
2018-Jan-23 15:30S 23°58' W 046°18'0 0.0
2018-Jan-23 15:00S 23°58' W 046°18'0 0.0
2018-Jan-23 14:30S 23°58' W 046°18'0 0.0
2018-Jan-23 14:00S 23°58' W 046°18'0 0.0
2018-Jan-23 13:30S 23°58' W 046°18'0 0.0
2018-Jan-23 13:00S 23°58' W 046°18'0 0.0
2018-Jan-23 12:30S 23°58' W 046°18'0 0.0
2018-Jan-23 12:00S 23°58' W 046°18'0 0.0
2018-Jan-23 11:27S 23°58' W 046°18'0 0.0
2018-Jan-23 10:57S 23°58' W 046°18'0 0.0
2018-Jan-23 10:30S 23°58' W 046°18'0 0.0
2018-Jan-23 10:00S 23°58' W 046°18'0 0.0
2018-Jan-23 09:30S 23°58' W 046°18'0 0.0
2018-Jan-23 09:00S 23°58' W 046°18'0 0.0
2018-Jan-23 08:30S 23°58' W 046°18'0 0.0
2018-Jan-23 08:00S 23°58' W 046°18'0 0.0
2018-Jan-23 07:30S 23°58' W 046°18'0 0.0
2018-Jan-23 07:00S 23°58' W 046°18'0 0.0
2018-Jan-23 06:27S 23°58' W 046°18'0 0.0
2018-Jan-23 05:57S 23°58' W 046°18'0 0.0
2018-Jan-23 05:30S 23°58' W 046°18'0 0.0
2018-Jan-23 05:00S 23°58' W 046°18'0 0.0
2018-Jan-23 04:30S 23°58' W 046°18'0 0.0
2018-Jan-23 04:00S 23°58' W 046°18'0 0.0
2018-Jan-23 03:30S 23°58' W 046°18'0 0.0
2018-Jan-23 03:00S 23°58' W 046°18'0 0.0
2018-Jan-23 02:30S 23°58' W 046°18'0 0.0
2018-Jan-23 01:57S 23°58' W 046°18'0 0.0
2018-Jan-23 01:30S 23°58' W 046°18'0 0.0
2018-Jan-23 00:57S 23°58' W 046°18'0 0.0
2018-Jan-23 00:30S 23°58' W 046°18'0 0.0
2018-Jan-23 00:00S 23°58' W 046°18'0 0.0
2018-Jan-22 23:30S 23°58' W 046°18'0 0.0
2018-Jan-22 22:57S 23°58' W 046°18'0 0.0
2018-Jan-22 22:30S 23°58' W 046°18'0 0.0
2018-Jan-22 22:00S 23°58' W 046°18'0 0.0
2018-Jan-22 21:24S 23°58' W 046°18'0 0.0
2018-Jan-22 20:57S 23°58' W 046°18'0 0.0
2018-Jan-22 20:30S 23°58' W 046°18'0 0.0
2018-Jan-22 19:57S 23°58' W 046°18'1 1.9
2018-Jan-22 19:30S 23°58' W 046°17'4 7.1
2018-Jan-22 19:00S 24°01' W 046°20'142 4.2
2018-Jan-21 08:56S 23°23' W 043°51'714.0
2018-Jan-21 08:28S 23°20' W 043°45'714.1
2018-Jan-21 08:01S 23°17' W 043°39'713.8
2018-Jan-21 07:30S 23°13' W 043°32'813.5
2018-Jan-21 06:55S 23°10' W 043°24'613.3
2018-Jan-21 06:30S 23°07' W 043°19'913.2
2018-Jan-21 05:49S 23°02' W 043°11'413.2
2018-Jan-21 05:30S 22°59' W 043°09'5 9.7
2018-Jan-21 05:00S 22°54' W 043°09'3 6.1
2018-Jan-21 04:31S 22°52' W 043°12'0 0.1
2018-Jan-21 03:59S 22°52' W 043°12'0 0.0
2018-Jan-21 03:29S 22°52' W 043°12'0 0.0
2018-Jan-21 02:59S 22°52' W 043°12'0 0.0
2018-Jan-21 02:29S 22°52' W 043°12'0 0.0
2018-Jan-21 01:59S 22°52' W 043°12'0 0.0
2018-Jan-21 01:29S 22°52' W 043°12'0 0.0
2018-Jan-21 00:59S 22°52' W 043°12'0 0.0
2018-Jan-21 00:29S 22°52' W 043°12'0 0.0
2018-Jan-20 23:59S 22°52' W 043°12'0 0.0
2018-Jan-20 23:29S 22°52' W 043°12'0 0.0
2018-Jan-20 22:59S 22°52' W 043°12'0 0.0
2018-Jan-20 22:29S 22°52' W 043°12'0 0.0
2018-Jan-20 21:59S 22°52' W 043°12'0 0.0
2018-Jan-20 21:29S 22°52' W 043°12'0 0.0
2018-Jan-20 20:59S 22°52' W 043°12'0 0.0
2018-Jan-20 20:29S 22°52' W 043°12'0 0.0
2018-Jan-20 19:59S 22°52' W 043°12'0 0.0
2018-Jan-20 19:29S 22°52' W 043°12'0 0.0
2018-Jan-20 18:59S 22°52' W 043°12'1 1.7
2018-Jan-20 18:30S 22°53' W 043°11'4 8.3
2018-Jan-20 18:00S 22°56' W 043°08'4 7.7
2018-Jan-20 17:30S 22°60' W 043°08'5 9.2
2018-Jan-20 17:00S 23°04' W 043°06'3 7.1
2018-Jan-20 16:30S 23°07' W 043°07'0 0.3
2018-Jan-20 15:59S 23°07' W 043°07'0 0.5
2018-Jan-20 15:30S 23°07' W 043°07'0 0.9
2018-Jan-20 15:00S 23°08' W 043°07'0 0.8
2018-Jan-20 14:30S 23°08' W 043°07'1 1.7
2018-Jan-20 14:00S 23°08' W 043°08'1 1.7
2018-Jan-20 13:30S 23°08' W 043°08'4 8.0
2018-Jan-20 13:00S 23°09' W 043°13'713.9
2018-Jan-20 12:30S 23°11' W 043°20'713.6
2018-Jan-20 11:59S 23°14' W 043°27'511.1
2018-Jan-20 11:30S 23°16' W 043°32'5 9.1
2018-Jan-20 10:57S 23°19' W 043°37'3 7.4
2018-Jan-20 10:30S 23°21' W 043°40'4 7.2
2018-Jan-20 09:59S 23°23' W 043°43'  
Track history (hours):
 
Tides and Currents Weather Stations Pressure Air Temp Water Temp Dewpoint Dewpoint Depression Visibility Wind Speed Wind Dir Waves Ship Positions

Oceanographic research ship Mitra (Netherlands)

Detailed information on ship capabilities available from University of Delaware's Ocean Information Center.

Last reported at 2018-Jan-23 23:14 UTC. Time now 2018-Feb-23 14:23 UTC.
Position S 24°02' W 046°21'.
Warning: this ship's position is 30 days out of date.

Length 223 m; draft 10.1 m.

Type: Ship (hazmat cat A). MMSI: 244670078.

Date/timePositionNaut miles runAvg speedWind from/ knotsBaromVisibWave heightAir tempDewpointWater temp
2018-Jan-23 23:14S 24°02' W 046°21'2 8.7
2018-Jan-23 23:00S 23°60' W 046°20'3 6.0
2018-Jan-23 22:31S 23°58' W 046°18'0 0.3
2018-Jan-23 21:57S 23°58' W 046°18'0 0.0
2018-Jan-23 21:30S 23°58' W 046°18'0 0.0
2018-Jan-23 20:57S 23°58' W 046°18'0 0.0
2018-Jan-23 20:27S 23°58' W 046°18'0 0.0
2018-Jan-23 20:00S 23°58' W 046°18'0 0.0
2018-Jan-23 19:30S 23°58' W 046°18'0 0.0
2018-Jan-23 19:00S 23°58' W 046°18'0 0.0
2018-Jan-23 18:30S 23°58' W 046°18'0 0.0
2018-Jan-23 18:00S 23°58' W 046°18'0 0.0
2018-Jan-23 17:30S 23°58' W 046°18'0 0.0
2018-Jan-23 17:00S 23°58' W 046°18'0 0.0
2018-Jan-23 16:27S 23°58' W 046°18'0 0.0
2018-Jan-23 16:00S 23°58' W 046°18'0 0.0
2018-Jan-23 15:30S 23°58' W 046°18'0 0.0
2018-Jan-23 15:00S 23°58' W 046°18'0 0.0
2018-Jan-23 14:30S 23°58' W 046°18'0 0.0
2018-Jan-23 14:00S 23°58' W 046°18'0 0.0
2018-Jan-23 13:30S 23°58' W 046°18'0 0.0
2018-Jan-23 13:00S 23°58' W 046°18'0 0.0
2018-Jan-23 12:30S 23°58' W 046°18'0 0.0
2018-Jan-23 12:00S 23°58' W 046°18'0 0.0
2018-Jan-23 11:27S 23°58' W 046°18'0 0.0
2018-Jan-23 10:57S 23°58' W 046°18'0 0.0
2018-Jan-23 10:30S 23°58' W 046°18'0 0.0
2018-Jan-23 10:00S 23°58' W 046°18'0 0.0
2018-Jan-23 09:30S 23°58' W 046°18'0 0.0
2018-Jan-23 09:00S 23°58' W 046°18'0 0.0
2018-Jan-23 08:30S 23°58' W 046°18'0 0.0
2018-Jan-23 08:00S 23°58' W 046°18'0 0.0
2018-Jan-23 07:30S 23°58' W 046°18'0 0.0
2018-Jan-23 07:00S 23°58' W 046°18'0 0.0
2018-Jan-23 06:27S 23°58' W 046°18'0 0.0
2018-Jan-23 05:57S 23°58' W 046°18'0 0.0
2018-Jan-23 05:30S 23°58' W 046°18'0 0.0
2018-Jan-23 05:00S 23°58' W 046°18'0 0.0
2018-Jan-23 04:30S 23°58' W 046°18'0 0.0
2018-Jan-23 04:00S 23°58' W 046°18'0 0.0
2018-Jan-23 03:30S 23°58' W 046°18'0 0.0
2018-Jan-23 03:00S 23°58' W 046°18'0 0.0
2018-Jan-23 02:30S 23°58' W 046°18'0 0.0
2018-Jan-23 01:57S 23°58' W 046°18'0 0.0
2018-Jan-23 01:30S 23°58' W 046°18'0 0.0
2018-Jan-23 00:57S 23°58' W 046°18'0 0.0
2018-Jan-23 00:30S 23°58' W 046°18'0 0.0
2018-Jan-23 00:00S 23°58' W 046°18'0 0.0
2018-Jan-22 23:30S 23°58' W 046°18'0 0.0
2018-Jan-22 22:57S 23°58' W 046°18'0 0.0
2018-Jan-22 22:30S 23°58' W 046°18'0 0.0
2018-Jan-22 22:00S 23°58' W 046°18'0 0.0
2018-Jan-22 21:24S 23°58' W 046°18'0 0.0
2018-Jan-22 20:57S 23°58' W 046°18'0 0.0
2018-Jan-22 20:30S 23°58' W 046°18'0 0.0
2018-Jan-22 19:57S 23°58' W 046°18'1 1.9
2018-Jan-22 19:30S 23°58' W 046°17'4 7.1
2018-Jan-22 19:00S 24°01' W 046°20'142 4.2
2018-Jan-21 08:56S 23°23' W 043°51'714.0
2018-Jan-21 08:28S 23°20' W 043°45'714.1
2018-Jan-21 08:01S 23°17' W 043°39'713.8
2018-Jan-21 07:30S 23°13' W 043°32'813.5
2018-Jan-21 06:55S 23°10' W 043°24'613.3
2018-Jan-21 06:30S 23°07' W 043°19'913.2
2018-Jan-21 05:49S 23°02' W 043°11'413.2
2018-Jan-21 05:30S 22°59' W 043°09'5 9.7
2018-Jan-21 05:00S 22°54' W 043°09'3 6.1
2018-Jan-21 04:31S 22°52' W 043°12'0 0.1
2018-Jan-21 03:59S 22°52' W 043°12'0 0.0
2018-Jan-21 03:29S 22°52' W 043°12'0 0.0
2018-Jan-21 02:59S 22°52' W 043°12'0 0.0
2018-Jan-21 02:29S 22°52' W 043°12'0 0.0
2018-Jan-21 01:59S 22°52' W 043°12'0 0.0
2018-Jan-21 01:29S 22°52' W 043°12'0 0.0
2018-Jan-21 00:59S 22°52' W 043°12'0 0.0
2018-Jan-21 00:29S 22°52' W 043°12'0 0.0
2018-Jan-20 23:59S 22°52' W 043°12'0 0.0
2018-Jan-20 23:29S 22°52' W 043°12'0 0.0
2018-Jan-20 22:59S 22°52' W 043°12'0 0.0
2018-Jan-20 22:29S 22°52' W 043°12'0 0.0
2018-Jan-20 21:59S 22°52' W 043°12'0 0.0
2018-Jan-20 21:29S 22°52' W 043°12'0 0.0
2018-Jan-20 20:59S 22°52' W 043°12'0 0.0
2018-Jan-20 20:29S 22°52' W 043°12'0 0.0
2018-Jan-20 19:59S 22°52' W 043°12'0 0.0
2018-Jan-20 19:29S 22°52' W 043°12'0 0.0
2018-Jan-20 18:59S 22°52' W 043°12'1 1.7
2018-Jan-20 18:30S 22°53' W 043°11'4 8.3
2018-Jan-20 18:00S 22°56' W 043°08'4 7.7
2018-Jan-20 17:30S 22°60' W 043°08'5 9.2
2018-Jan-20 17:00S 23°04' W 043°06'3 7.1
2018-Jan-20 16:30S 23°07' W 043°07'0 0.3
2018-Jan-20 15:59S 23°07' W 043°07'0 0.5
2018-Jan-20 15:30S 23°07' W 043°07'0 0.9
2018-Jan-20 15:00S 23°08' W 043°07'0 0.8
2018-Jan-20 14:30S 23°08' W 043°07'1 1.7
2018-Jan-20 14:00S 23°08' W 043°08'1 1.7
2018-Jan-20 13:30S 23°08' W 043°08'4 8.0
2018-Jan-20 13:00S 23°09' W 043°13'713.9
2018-Jan-20 12:30S 23°11' W 043°20'713.6
2018-Jan-20 11:59S 23°14' W 043°27'511.1
2018-Jan-20 11:30S 23°16' W 043°32'5 9.1
2018-Jan-20 10:57S 23°19' W 043°37'3 7.4
2018-Jan-20 10:30S 23°21' W 043°40'4 7.2
2018-Jan-20 09:59S 23°23' W 043°43'  

Dump ship's entire track history